createdAt,value
2017-05-26T00:00:58.945Z,0
2017-05-26T00:01:58.981Z,0
2017-05-26T00:02:59.262Z,0
2017-05-26T00:03:58.411Z,0
2017-05-26T00:04:59.064Z,0
2017-05-26T00:05:59.084Z,0
2017-05-26T00:06:58.813Z,0
2017-05-26T00:07:59.094Z,0
2017-05-26T00:08:58.871Z,0
2017-05-26T00:09:58.895Z,0
2017-05-26T00:10:59.241Z,0
2017-05-26T00:11:59.269Z,0
2017-05-26T00:12:59.514Z,0
2017-05-26T00:13:59.328Z,0
2017-05-26T00:14:59.349Z,0
2017-05-26T00:15:59.388Z,0
2017-05-26T00:16:59.417Z,0
2017-05-26T00:17:59.652Z,0
2017-05-26T00:18:59.471Z,0
2017-05-26T00:19:59.202Z,0
2017-05-26T00:20:59.531Z,0
2017-05-26T00:21:59.563Z,0
2017-05-26T00:22:59.334Z,0
2017-05-26T00:23:59.364Z,0
2017-05-26T00:24:59.655Z,0
2017-05-26T00:25:59.051Z,0
2017-05-26T00:26:59.393Z,0
2017-05-26T00:27:59.732Z,0
2017-05-26T00:28:59.761Z,0
2017-05-26T00:29:59.474Z,0
2017-05-26T00:30:59.815Z,0
2017-05-26T00:31:59.844Z,0
2017-05-26T00:32:59.560Z,0
2017-05-26T00:33:59.279Z,0
2017-05-26T00:34:59.642Z,0
2017-05-26T00:35:59.959Z,0
2017-05-26T00:36:59.679Z,0
2017-05-26T00:38:00.026Z,0
2017-05-26T00:39:00.125Z,0
2017-05-26T00:39:59.773Z,0
2017-05-26T00:41:00.107Z,0
2017-05-26T00:41:59.828Z,0
2017-05-26T00:42:59.541Z,0
2017-05-26T00:44:00.466Z,0
2017-05-26T00:45:00.290Z,0
2017-05-26T00:45:59.943Z,0
2017-05-26T00:46:59.967Z,0
2017-05-26T00:48:00.001Z,0
2017-05-26T00:49:00.285Z,0
2017-05-26T00:50:00.063Z,0
2017-05-26T00:51:00.091Z,0
2017-05-26T00:51:59.812Z,0
2017-05-26T00:53:00.464Z,0
2017-05-26T00:54:00.425Z,0
2017-05-26T00:55:00.209Z,0
2017-05-26T00:56:00.543Z,0
2017-05-26T00:56:59.947Z,0
2017-05-26T00:58:00.287Z,0
2017-05-26T00:59:00.877Z,0
2017-05-26T01:00:00.666Z,0
2017-05-26T01:01:00.369Z,0
2017-05-26T01:02:00.713Z,0
2017-05-26T01:03:00.748Z,0
2017-05-26T01:04:00.408Z,0
2017-05-26T01:05:00.802Z,0
2017-05-26T01:06:00.523Z,0
2017-05-26T01:07:00.544Z,0
2017-05-26T01:08:00.571Z,0
2017-05-26T01:09:00.488Z,0
2017-05-26T01:10:00.634Z,0
2017-05-26T01:11:00.982Z,0
2017-05-26T01:12:01.063Z,0
2017-05-26T01:13:00.722Z,0
2017-05-26T01:14:01.001Z,0
2017-05-26T01:15:00.778Z,0
2017-05-26T01:16:01.115Z,0
2017-05-26T01:17:01.148Z,0
2017-05-26T01:18:00.864Z,0
2017-05-26T01:19:00.829Z,0
2017-05-26T01:20:00.609Z,0
2017-05-26T01:21:00.951Z,0
2017-05-26T01:22:00.979Z,0
2017-05-26T01:23:01.328Z,0
2017-05-26T01:24:01.293Z,0
2017-05-26T01:25:01.077Z,0
2017-05-26T01:26:01.090Z,0
2017-05-26T01:27:01.132Z,0
2017-05-26T01:28:01.463Z,0
2017-05-26T01:29:01.441Z,0
2017-05-26T01:30:00.915Z,0
2017-05-26T01:31:01.233Z,0
2017-05-26T01:32:01.584Z,0
2017-05-26T01:33:01.608Z,0
2017-05-26T01:34:01.624Z,0
2017-05-26T01:35:01.356Z,0
2017-05-26T01:36:01.695Z,0
2017-05-26T01:37:01.731Z,0
2017-05-26T01:38:01.752Z,0
2017-05-26T01:39:01.664Z,0
2017-05-26T01:40:01.497Z,0
2017-05-26T01:41:01.850Z,0
2017-05-26T01:42:01.870Z,0
2017-05-26T01:43:01.896Z,0
2017-05-26T01:44:02.181Z,0
2017-05-26T01:45:01.959Z,0
2017-05-26T01:46:01.671Z,0
2017-05-26T01:47:01.690Z,0
2017-05-26T01:48:02.039Z,0
2017-05-26T01:49:02.320Z,0
2017-05-26T01:50:02.097Z,0
2017-05-26T01:51:01.814Z,0
2017-05-26T01:52:01.847Z,0
2017-05-26T01:53:01.872Z,0
2017-05-26T01:54:01.836Z,0
2017-05-26T01:55:01.945Z,0
2017-05-26T01:56:02.011Z,0
2017-05-26T01:57:02.298Z,0
2017-05-26T01:58:02.011Z,0
2017-05-26T01:59:02.605Z,0
2017-05-26T02:00:02.393Z,0
2017-05-26T02:01:02.101Z,0
2017-05-26T02:02:02.443Z,0
2017-05-26T02:03:02.160Z,0
2017-05-26T02:04:02.492Z,0
2017-05-26T02:05:02.529Z,0
2017-05-26T02:06:02.558Z,0
2017-05-26T02:07:02.587Z,0
2017-05-26T02:08:02.619Z,0
2017-05-26T02:09:02.648Z,0
2017-05-26T02:10:02.682Z,0
2017-05-26T02:11:02.698Z,0
2017-05-26T02:12:02.102Z,0
2017-05-26T02:13:02.140Z,0
2017-05-26T02:14:02.792Z,0
2017-05-26T02:15:02.185Z,0
2017-05-26T02:16:02.844Z,0
2017-05-26T02:17:02.927Z,0
2017-05-26T02:18:02.900Z,0
2017-05-26T02:19:02.624Z,0
2017-05-26T02:20:02.649Z,0
2017-05-26T02:21:02.986Z,0
2017-05-26T02:22:02.706Z,0
2017-05-26T02:23:02.731Z,0
2017-05-26T02:24:03.082Z,0
2017-05-26T02:25:02.490Z,0
2017-05-26T02:26:03.130Z,0
2017-05-26T02:27:02.531Z,0
2017-05-26T02:28:02.871Z,0
2017-05-26T02:29:02.900Z,0
2017-05-26T02:30:03.191Z,0
2017-05-26T02:31:03.274Z,0
2017-05-26T02:32:02.991Z,0
2017-05-26T02:33:03.016Z,0
2017-05-26T02:34:03.361Z,0
2017-05-26T02:35:02.970Z,0
2017-05-26T02:36:03.412Z,0
2017-05-26T02:37:02.825Z,0
2017-05-26T02:38:03.478Z,0
2017-05-26T02:39:03.505Z,0
2017-05-26T02:40:03.464Z,0
2017-05-26T02:41:03.566Z,0
2017-05-26T02:42:03.582Z,0
2017-05-26T02:43:03.316Z,0
2017-05-26T02:44:03.651Z,0
2017-05-26T02:45:03.916Z,0
2017-05-26T02:46:03.391Z,0
2017-05-26T02:47:03.743Z,0
2017-05-26T02:48:03.454Z,0
2017-05-26T02:49:03.476Z,0
2017-05-26T02:50:03.768Z,0
2017-05-26T02:51:03.533Z,0
2017-05-26T02:52:03.862Z,0
2017-05-26T02:53:03.579Z,0
2017-05-26T02:54:03.932Z,0
2017-05-26T02:55:03.904Z,0
2017-05-26T02:56:03.989Z,0
2017-05-26T02:57:04.017Z,0
2017-05-26T02:58:03.735Z,0
2017-05-26T02:59:04.084Z,0
2017-05-26T03:00:04.362Z,0
2017-05-26T03:01:04.129Z,0
2017-05-26T03:02:04.162Z,0
2017-05-26T03:03:04.225Z,0
2017-05-26T03:04:04.219Z,0
2017-05-26T03:05:04.186Z,0
2017-05-26T03:06:03.963Z,0
2017-05-26T03:07:03.994Z,0
2017-05-26T03:08:04.347Z,0
2017-05-26T03:09:04.360Z,0
2017-05-26T03:10:04.635Z,0
2017-05-26T03:11:04.101Z,4
2017-05-26T03:12:04.155Z,4
2017-05-26T03:13:04.479Z,0
2017-05-26T03:14:04.244Z,4
2017-05-26T03:15:04.781Z,4
2017-05-26T03:16:04.556Z,4
2017-05-26T03:17:04.594Z,4
2017-05-26T03:18:03.993Z,4
2017-05-26T03:19:04.332Z,8
2017-05-26T03:20:04.926Z,4
2017-05-26T03:21:04.699Z,8
2017-05-26T03:22:04.417Z,8
2017-05-26T03:23:04.454Z,12
2017-05-26T03:24:04.791Z,12
2017-05-26T03:25:05.061Z,12
2017-05-26T03:26:04.536Z,16
2017-05-26T03:27:04.561Z,16
2017-05-26T03:28:04.895Z,16
2017-05-26T03:29:04.926Z,20
2017-05-26T03:30:04.583Z,24
2017-05-26T03:31:04.989Z,28
2017-05-26T03:32:04.709Z,28
2017-05-26T03:33:04.738Z,32
2017-05-26T03:34:04.763Z,36
2017-05-26T03:35:05.351Z,36
2017-05-26T03:36:05.138Z,40
2017-05-26T03:37:04.845Z,44
2017-05-26T03:38:05.193Z,44
2017-05-26T03:39:04.909Z,48
2017-05-26T03:40:05.178Z,56
2017-05-26T03:41:04.340Z,60
2017-05-26T03:42:04.987Z,64
2017-05-26T03:43:05.018Z,68
2017-05-26T03:44:05.069Z,72
2017-05-26T03:45:05.339Z,76
2017-05-26T03:46:04.793Z,84
2017-05-26T03:47:05.444Z,88
2017-05-26T03:48:05.161Z,88
2017-05-26T03:49:05.498Z,96
2017-05-26T03:50:05.164Z,100
2017-05-26T03:51:05.557Z,108
2017-05-26T03:52:05.277Z,108
2017-05-26T03:53:05.298Z,116
2017-05-26T03:54:05.634Z,120
2017-05-26T03:55:05.612Z,128
2017-05-26T03:56:05.066Z,128
2017-05-26T03:57:05.419Z,136
2017-05-26T03:58:05.134Z,140
2017-05-26T03:59:05.469Z,148
2017-05-26T04:00:05.747Z,152
2017-05-26T04:01:05.524Z,156
2017-05-26T04:02:05.560Z,164
2017-05-26T04:03:05.592Z,168
2017-05-26T04:04:05.922Z,176
2017-05-26T04:05:06.212Z,176
2017-05-26T04:06:05.988Z,180
2017-05-26T04:07:05.761Z,188
2017-05-26T04:08:06.046Z,192
2017-05-26T04:09:05.746Z,196
2017-05-26T04:10:06.035Z,204
2017-05-26T04:11:05.828Z,208
2017-05-26T04:12:05.845Z,212
2017-05-26T04:13:05.863Z,212
2017-05-26T04:14:05.903Z,220
2017-05-26T04:15:06.177Z,224
2017-05-26T04:16:05.646Z,228
2017-05-26T04:17:06.348Z,236
2017-05-26T04:18:06.321Z,240
2017-05-26T04:19:06.033Z,244
2017-05-26T04:20:06.635Z,248
2017-05-26T04:21:05.779Z,248
2017-05-26T04:22:06.441Z,252
2017-05-26T04:23:06.150Z,256
2017-05-26T04:24:06.494Z,260
2017-05-26T04:25:06.774Z,264
2017-05-26T04:26:06.236Z,268
2017-05-26T04:27:06.579Z,272
2017-05-26T04:28:06.605Z,276
2017-05-26T04:29:06.322Z,280
2017-05-26T04:30:06.601Z,284
2017-05-26T04:31:06.697Z,284
2017-05-26T04:32:06.108Z,288
2017-05-26T04:33:06.748Z,296
2017-05-26T04:34:06.770Z,300
2017-05-26T04:35:06.383Z,300
2017-05-26T04:36:06.836Z,304
2017-05-26T04:37:06.860Z,308
2017-05-26T04:38:06.578Z,312
2017-05-26T04:39:06.923Z,316
2017-05-26T04:40:07.199Z,320
2017-05-26T04:41:06.983Z,320
2017-05-26T04:42:07.004Z,324
2017-05-26T04:43:07.037Z,328
2017-05-26T04:44:07.066Z,332
2017-05-26T04:45:07.346Z,336
2017-05-26T04:46:06.809Z,340
2017-05-26T04:47:07.145Z,340
2017-05-26T04:48:06.285Z,344
2017-05-26T04:49:06.905Z,348
2017-05-26T04:50:07.177Z,352
2017-05-26T04:51:06.950Z,356
2017-05-26T04:52:07.284Z,356
2017-05-26T04:53:07.322Z,356
2017-05-26T04:54:06.717Z,360
2017-05-26T04:55:07.315Z,364
2017-05-26T04:56:07.095Z,368
2017-05-26T04:57:07.116Z,368
2017-05-26T04:58:06.833Z,372
2017-05-26T04:59:07.489Z,376
2017-05-26T05:00:07.761Z,380
2017-05-26T05:01:07.223Z,380
2017-05-26T05:02:07.568Z,384
2017-05-26T05:03:07.284Z,384
2017-05-26T05:04:07.318Z,392
2017-05-26T05:05:07.030Z,388
2017-05-26T05:06:07.376Z,392
2017-05-26T05:07:07.421Z,396
2017-05-26T05:08:07.436Z,400
2017-05-26T05:09:07.456Z,400
2017-05-26T05:10:07.799Z,404
2017-05-26T05:11:07.830Z,404
2017-05-26T05:12:07.854Z,408
2017-05-26T05:13:07.888Z,408
2017-05-26T05:14:07.898Z,412
2017-05-26T05:15:07.309Z,416
2017-05-26T05:16:07.341Z,416
2017-05-26T05:17:07.682Z,420
2017-05-26T05:18:07.708Z,424
2017-05-26T05:19:08.048Z,424
2017-05-26T05:20:08.081Z,428
2017-05-26T05:21:07.803Z,432
2017-05-26T05:22:08.143Z,432
2017-05-26T05:23:07.537Z,436
2017-05-26T05:24:08.188Z,436
2017-05-26T05:25:07.909Z,440
2017-05-26T05:26:08.254Z,440
2017-05-26T05:27:07.977Z,440
2017-05-26T05:28:08.301Z,448
2017-05-26T05:29:08.345Z,448
2017-05-26T05:30:08.377Z,448
2017-05-26T05:31:08.394Z,452
2017-05-26T05:32:08.117Z,452
2017-05-26T05:33:08.452Z,456
2017-05-26T05:34:07.856Z,456
2017-05-26T05:35:08.510Z,456
2017-05-26T05:36:08.223Z,460
2017-05-26T05:37:08.567Z,460
2017-05-26T05:38:08.652Z,460
2017-05-26T05:39:08.625Z,468
2017-05-26T05:40:08.645Z,468
2017-05-26T05:41:08.687Z,468
2017-05-26T05:42:08.079Z,472
2017-05-26T05:43:08.423Z,472
2017-05-26T05:44:08.454Z,452
2017-05-26T05:45:08.476Z,476
2017-05-26T05:46:08.202Z,480
2017-05-26T05:47:08.543Z,480
2017-05-26T05:48:08.564Z,484
2017-05-26T05:49:08.909Z,480
2017-05-26T05:50:08.925Z,484
2017-05-26T05:51:08.652Z,484
2017-05-26T05:52:09.000Z,484
2017-05-26T05:53:09.027Z,488
2017-05-26T05:54:09.049Z,488
2017-05-26T05:55:08.821Z,488
2017-05-26T05:56:08.786Z,492
2017-05-26T05:57:09.131Z,492
2017-05-26T05:58:08.856Z,492
2017-05-26T05:59:08.881Z,496
2017-05-26T06:00:09.219Z,496
2017-05-26T06:01:09.260Z,496
2017-05-26T06:02:08.971Z,496
2017-05-26T06:03:09.315Z,496
2017-05-26T06:04:09.338Z,496
2017-05-26T06:05:09.045Z,496
2017-05-26T06:06:09.078Z,496
2017-05-26T06:07:08.798Z,496
2017-05-26T06:08:09.141Z,496
2017-05-26T06:09:09.164Z,500
2017-05-26T06:10:09.192Z,500
2017-05-26T06:11:09.466Z,496
2017-05-26T06:12:09.569Z,500
2017-05-26T06:13:09.284Z,500
2017-05-26T06:14:09.613Z,500
2017-05-26T06:15:09.329Z,500
2017-05-26T06:16:09.878Z,500
2017-05-26T06:17:09.074Z,500
2017-05-26T06:18:09.420Z,504
2017-05-26T06:19:09.448Z,500
2017-05-26T06:20:09.784Z,500
2017-05-26T06:21:10.071Z,500
2017-05-26T06:22:09.530Z,504
2017-05-26T06:23:09.875Z,504
2017-05-26T06:24:09.896Z,504
2017-05-26T06:25:09.618Z,508
2017-05-26T06:26:10.215Z,504
2017-05-26T06:27:09.674Z,508
2017-05-26T06:28:09.707Z,508
2017-05-26T06:29:09.724Z,508
2017-05-26T06:30:09.781Z,508
2017-05-26T06:31:10.045Z,512
2017-05-26T06:32:10.129Z,512
2017-05-26T06:33:09.854Z,512
2017-05-26T06:34:10.192Z,512
2017-05-26T06:35:09.903Z,512
2017-05-26T06:36:10.447Z,516
2017-05-26T06:37:09.959Z,512
2017-05-26T06:38:09.983Z,516
2017-05-26T06:39:09.396Z,516
2017-05-26T06:40:10.109Z,516
2017-05-26T06:41:10.584Z,516
2017-05-26T06:42:10.102Z,516
2017-05-26T06:43:10.122Z,516
2017-05-26T06:44:10.476Z,520
2017-05-26T06:45:10.509Z,520
2017-05-26T06:46:10.418Z,520
2017-05-26T06:47:10.560Z,520
2017-05-26T06:48:10.574Z,524
2017-05-26T06:49:09.996Z,520
2017-05-26T06:50:10.648Z,524
2017-05-26T06:51:10.621Z,520
2017-05-26T06:52:10.705Z,524
2017-05-26T06:53:10.428Z,528
2017-05-26T06:54:10.771Z,528
2017-05-26T06:55:10.788Z,524
2017-05-26T06:56:11.073Z,528
2017-05-26T06:57:10.846Z,532
2017-05-26T06:58:10.567Z,528
2017-05-26T06:59:10.591Z,528
2017-05-26T07:00:10.933Z,532
2017-05-26T07:01:11.217Z,532
2017-05-26T07:02:10.995Z,532
2017-05-26T07:03:11.015Z,532
2017-05-26T07:04:11.051Z,532
2017-05-26T07:05:10.772Z,532
2017-05-26T07:06:11.308Z,536
2017-05-26T07:07:11.130Z,540
2017-05-26T07:08:10.838Z,540
2017-05-26T07:09:10.883Z,540
2017-05-26T07:10:11.216Z,540
2017-05-26T07:11:11.504Z,540
2017-05-26T07:12:11.270Z,544
2017-05-26T07:13:10.682Z,540
2017-05-26T07:14:11.000Z,544
2017-05-26T07:15:11.373Z,544
2017-05-26T07:16:11.294Z,544
2017-05-26T07:17:11.106Z,548
2017-05-26T07:18:10.826Z,548
2017-05-26T07:19:11.168Z,544
2017-05-26T07:20:11.196Z,548
2017-05-26T07:21:11.433Z,548
2017-05-26T07:22:11.565Z,548
2017-05-26T07:23:11.283Z,552
2017-05-26T07:24:11.000Z,552
2017-05-26T07:25:11.341Z,552
2017-05-26T07:26:11.299Z,552
2017-05-26T07:27:11.708Z,548
2017-05-26T07:28:11.442Z,548
2017-05-26T07:29:11.139Z,552
2017-05-26T07:30:11.790Z,548
2017-05-26T07:31:11.443Z,552
2017-05-26T07:32:11.539Z,552
2017-05-26T07:33:11.570Z,556
2017-05-26T07:34:11.279Z,556
2017-05-26T07:35:11.363Z,560
2017-05-26T07:36:11.532Z,556
2017-05-26T07:37:11.990Z,556
2017-05-26T07:38:12.019Z,560
2017-05-26T07:39:12.053Z,560
2017-05-26T07:40:11.764Z,560
2017-05-26T07:41:12.356Z,564
2017-05-26T07:42:11.197Z,568
2017-05-26T07:43:12.159Z,572
2017-05-26T07:44:12.198Z,568
2017-05-26T07:45:12.216Z,568
2017-05-26T07:46:12.144Z,568
2017-05-26T07:47:11.969Z,572
2017-05-26T07:48:11.998Z,572
2017-05-26T07:49:12.027Z,572
2017-05-26T07:50:12.055Z,576
2017-05-26T07:51:12.648Z,576
2017-05-26T07:52:12.426Z,580
2017-05-26T07:53:12.140Z,580
2017-05-26T07:54:12.485Z,584
2017-05-26T07:55:12.514Z,584
2017-05-26T07:56:12.475Z,588
2017-05-26T07:57:12.250Z,584
2017-05-26T07:58:12.289Z,592
2017-05-26T07:59:12.341Z,596
2017-05-26T08:00:12.346Z,600
2017-05-26T08:01:12.619Z,600
2017-05-26T08:02:12.400Z,604
2017-05-26T08:03:12.741Z,608
2017-05-26T08:04:12.768Z,612
2017-05-26T08:05:12.798Z,620
2017-05-26T08:06:12.779Z,624
2017-05-26T08:07:12.852Z,624
2017-05-26T08:08:12.890Z,624
2017-05-26T08:09:12.911Z,620
2017-05-26T08:10:12.942Z,624
2017-05-26T08:11:13.222Z,632
2017-05-26T08:12:12.371Z,636
2017-05-26T08:13:13.029Z,640
2017-05-26T08:14:13.063Z,644
2017-05-26T08:15:13.091Z,652
2017-05-26T08:16:13.362Z,656
2017-05-26T08:17:12.829Z,652
2017-05-26T08:18:12.545Z,660
2017-05-26T08:19:12.890Z,672
2017-05-26T08:20:12.617Z,668
2017-05-26T08:21:13.507Z,668
2017-05-26T08:22:13.279Z,668
2017-05-26T08:23:12.997Z,668
2017-05-26T08:24:13.044Z,676
2017-05-26T08:25:12.818Z,680
2017-05-26T08:26:13.339Z,684
2017-05-26T08:27:13.428Z,680
2017-05-26T08:28:13.461Z,684
2017-05-26T08:29:13.491Z,692
2017-05-26T08:30:13.520Z,696
2017-05-26T08:31:13.483Z,700
2017-05-26T08:32:13.260Z,704
2017-05-26T08:33:13.296Z,712
2017-05-26T08:34:13.638Z,716
2017-05-26T08:35:13.034Z,724
2017-05-26T08:36:13.938Z,720
2017-05-26T08:37:12.778Z,724
2017-05-26T08:38:13.437Z,728
2017-05-26T08:39:13.145Z,728
2017-05-26T08:40:13.803Z,732
2017-05-26T08:41:14.132Z,736
2017-05-26T08:42:13.851Z,744
2017-05-26T08:43:13.586Z,748
2017-05-26T08:44:13.610Z,744
2017-05-26T08:45:13.639Z,748
2017-05-26T08:46:14.221Z,748
2017-05-26T08:47:13.694Z,752
2017-05-26T08:48:14.033Z,748
2017-05-26T08:49:14.061Z,756
2017-05-26T08:50:14.091Z,760
2017-05-26T08:51:13.997Z,768
2017-05-26T08:52:13.524Z,772
2017-05-26T08:53:14.180Z,784
2017-05-26T08:54:14.217Z,784
2017-05-26T08:55:13.925Z,780
2017-05-26T08:56:14.515Z,788
2017-05-26T08:57:14.298Z,788
2017-05-26T08:58:13.700Z,792
2017-05-26T08:59:14.045Z,792
2017-05-26T09:00:14.116Z,800
2017-05-26T09:01:14.650Z,804
2017-05-26T09:02:14.435Z,796
2017-05-26T09:03:14.147Z,804
2017-05-26T09:04:14.488Z,812
2017-05-26T09:05:13.898Z,812
2017-05-26T09:06:14.498Z,816
2017-05-26T09:07:14.583Z,828
2017-05-26T09:08:14.622Z,836
2017-05-26T09:09:14.644Z,840
2017-05-26T09:10:14.661Z,840
2017-05-26T09:11:14.638Z,840
2017-05-26T09:12:14.727Z,840
2017-05-26T09:13:14.141Z,840
2017-05-26T09:14:14.474Z,844
2017-05-26T09:15:14.833Z,852
2017-05-26T09:16:14.781Z,864
2017-05-26T09:17:14.575Z,872
2017-05-26T09:18:14.967Z,876
2017-05-26T09:19:14.612Z,880
2017-05-26T09:20:14.944Z,880
2017-05-26T09:21:15.245Z,888
2017-05-26T09:22:14.707Z,896
2017-05-26T09:23:14.736Z,908
2017-05-26T09:24:15.068Z,916
2017-05-26T09:25:15.109Z,908
2017-05-26T09:26:15.339Z,904
2017-05-26T09:27:14.846Z,916
2017-05-26T09:28:14.567Z,924
2017-05-26T09:29:14.904Z,928
2017-05-26T09:30:15.254Z,924
2017-05-26T09:31:15.478Z,932
2017-05-26T09:32:15.308Z,936
2017-05-26T09:33:15.023Z,940
2017-05-26T09:34:15.049Z,944
2017-05-26T09:35:15.071Z,948
2017-05-26T09:36:15.675Z,956
2017-05-26T09:37:15.455Z,964
2017-05-26T09:38:15.164Z,968
2017-05-26T09:39:15.192Z,968
2017-05-26T09:40:15.538Z,968
2017-05-26T09:41:15.142Z,980
2017-05-26T09:42:15.280Z,988
2017-05-26T09:43:15.307Z,984
2017-05-26T09:44:15.662Z,992
2017-05-26T09:45:15.685Z,1004
2017-05-26T09:46:15.909Z,1004
2017-05-26T09:47:15.738Z,1004
2017-05-26T09:48:15.761Z,1000
2017-05-26T09:49:15.796Z,1012
2017-05-26T09:50:15.833Z,1020
2017-05-26T09:51:15.543Z,1024
2017-05-26T09:52:15.887Z,1020
2017-05-26T09:53:15.917Z,1032
2017-05-26T09:54:15.660Z,1036
2017-05-26T09:55:15.970Z,1048
2017-05-26T09:56:16.000Z,1060
2017-05-26T09:57:15.719Z,1068
2017-05-26T09:58:16.068Z,1060
2017-05-26T09:59:16.098Z,1048
2017-05-26T10:00:16.128Z,1044
2017-05-26T10:01:16.146Z,1052
2017-05-26T10:02:16.168Z,1060
2017-05-26T10:03:16.213Z,1068
2017-05-26T10:04:15.921Z,1072
2017-05-26T10:05:16.270Z,1080
2017-05-26T10:06:15.978Z,1092
2017-05-26T10:07:16.325Z,1092
2017-05-26T10:08:16.358Z,1088
2017-05-26T10:09:15.758Z,1092
2017-05-26T10:10:16.409Z,1100
2017-05-26T10:11:16.436Z,1112
2017-05-26T10:12:16.220Z,1116
2017-05-26T10:13:16.497Z,1108
2017-05-26T10:14:16.214Z,1108
2017-05-26T10:15:16.554Z,1112
2017-05-26T10:16:16.580Z,1112
2017-05-26T10:17:16.548Z,1116
2017-05-26T10:18:16.645Z,1116
2017-05-26T10:19:16.367Z,1116
2017-05-26T10:20:16.390Z,1120
2017-05-26T10:21:16.419Z,1140
2017-05-26T10:22:16.389Z,1152
2017-05-26T10:23:16.789Z,1144
2017-05-26T10:24:16.505Z,1148
2017-05-26T10:25:16.530Z,1156
2017-05-26T10:26:16.563Z,1160
2017-05-26T10:27:16.840Z,1164
2017-05-26T10:28:16.932Z,1172
2017-05-26T10:29:16.958Z,1180
2017-05-26T10:30:16.985Z,1172
2017-05-26T10:31:16.715Z,1172
2017-05-26T10:32:16.621Z,1184
2017-05-26T10:33:16.769Z,1184
2017-05-26T10:34:17.113Z,1192
2017-05-26T10:35:16.198Z,1200
2017-05-26T10:36:17.171Z,1200
2017-05-26T10:37:17.132Z,1204
2017-05-26T10:38:17.225Z,1200
2017-05-26T10:39:17.266Z,1204
2017-05-26T10:40:17.303Z,1208
2017-05-26T10:41:17.317Z,1212
2017-05-26T10:42:17.344Z,1220
2017-05-26T10:43:17.063Z,1232
2017-05-26T10:44:17.402Z,1236
2017-05-26T10:45:17.432Z,1244
2017-05-26T10:46:17.147Z,1260
2017-05-26T10:47:17.732Z,1268
2017-05-26T10:48:17.205Z,1280
2017-05-26T10:49:17.229Z,1292
2017-05-26T10:50:16.638Z,1272
2017-05-26T10:51:17.287Z,1260
2017-05-26T10:52:17.836Z,1256
2017-05-26T10:53:17.661Z,1264
2017-05-26T10:54:17.377Z,1272
2017-05-26T10:55:17.727Z,1284
2017-05-26T10:56:17.747Z,1288
2017-05-26T10:57:17.983Z,1304
2017-05-26T10:58:17.496Z,1308
2017-05-26T10:59:17.842Z,1308
2017-05-26T11:00:17.870Z,1320
2017-05-26T11:01:17.579Z,1316
2017-05-26T11:02:18.232Z,1316
2017-05-26T11:03:17.640Z,1304
2017-05-26T11:04:17.669Z,1320
2017-05-26T11:05:17.701Z,1328
2017-05-26T11:06:17.734Z,1332
2017-05-26T11:07:18.368Z,1360
2017-05-26T11:08:18.108Z,1396
2017-05-26T11:09:17.516Z,1412
2017-05-26T11:10:17.846Z,1444
2017-05-26T11:11:17.562Z,1488
2017-05-26T11:12:18.536Z,1552
2017-05-26T11:13:18.244Z,1668
2017-05-26T11:14:18.286Z,1912
2017-05-26T11:15:17.690Z,2168
2017-05-26T11:16:18.323Z,2288
2017-05-26T11:17:18.355Z,2324
2017-05-26T11:18:18.395Z,2372
2017-05-26T11:19:18.429Z,2424
2017-05-26T11:20:18.453Z,2492
2017-05-26T11:21:18.167Z,2528
2017-05-26T11:22:18.187Z,2556
2017-05-26T11:23:18.231Z,2596
2017-05-26T11:24:18.573Z,2656
2017-05-26T11:25:18.607Z,2704
2017-05-26T11:26:18.639Z,2768
2017-05-26T11:27:18.542Z,2844
2017-05-26T11:28:18.695Z,2924
2017-05-26T11:29:18.728Z,3008
2017-05-26T11:30:18.746Z,3076
2017-05-26T11:31:18.465Z,3180
2017-05-26T11:32:19.115Z,3324
2017-05-26T11:33:18.532Z,3776
2017-05-26T11:34:18.556Z,5328
2017-05-26T11:35:18.572Z,6832
2017-05-26T11:36:18.934Z,7364
2017-05-26T11:37:19.201Z,7904
2017-05-26T11:38:18.986Z,8532
2017-05-26T11:39:19.025Z,8988
2017-05-26T11:40:18.733Z,8756
2017-05-26T11:41:18.769Z,8568
2017-05-26T11:42:19.045Z,8544
2017-05-26T11:43:18.831Z,8804
2017-05-26T11:44:19.163Z,9312
2017-05-26T11:45:19.196Z,9936
2017-05-26T11:46:18.606Z,11004
2017-05-26T11:47:19.196Z,13132
2017-05-26T11:48:18.981Z,19372
2017-05-26T11:49:19.016Z,26752
2017-05-26T11:50:19.441Z,34272
2017-05-26T11:51:19.073Z,41600
2017-05-26T11:52:19.745Z,45920
2017-05-26T11:53:19.388Z,49312
2017-05-26T11:54:19.163Z,51392
2017-05-26T11:55:19.201Z,52256
2017-05-26T11:56:19.545Z,53504
2017-05-26T11:57:19.470Z,53824
2017-05-26T11:58:19.640Z,52992
2017-05-26T11:59:19.340Z,50976
2017-05-26T12:00:19.670Z,50112
2017-05-26T12:01:19.389Z,50048
2017-05-26T12:02:19.629Z,48192
2017-05-26T12:03:19.767Z,45536
2017-05-26T12:04:19.492Z,44704
2017-05-26T12:05:19.208Z,45536
2017-05-26T12:06:19.564Z,45248
2017-05-26T12:07:19.833Z,43744
2017-05-26T12:08:19.298Z,41952
2017-05-26T12:09:19.655Z,39648
2017-05-26T12:10:20.004Z,38176
2017-05-26T12:11:20.037Z,38112
2017-05-26T12:12:20.269Z,39456
2017-05-26T12:13:19.795Z,41376
2017-05-26T12:14:20.138Z,42816
2017-05-26T12:15:19.856Z,41376
2017-05-26T12:16:20.196Z,39104
2017-05-26T12:17:20.174Z,38304
2017-05-26T12:18:19.947Z,41664
2017-05-26T12:19:19.678Z,46464
2017-05-26T12:20:19.393Z,51200
2017-05-26T12:21:20.371Z,57280
2017-05-26T12:22:20.297Z,67264
2017-05-26T12:23:20.119Z,76640
2017-05-26T12:24:20.463Z,82336
2017-05-26T12:25:20.500Z,84096
2017-05-26T12:26:20.236Z,81952
2017-05-26T12:27:20.506Z,78208
2017-05-26T12:28:19.670Z,76928
2017-05-26T12:29:20.644Z,75488
2017-05-26T12:30:20.424Z,76256
2017-05-26T12:31:20.712Z,77248
2017-05-26T12:32:20.997Z,76800
2017-05-26T12:33:20.478Z,75296
2017-05-26T12:34:20.507Z,74880
2017-05-26T12:35:20.531Z,77152
2017-05-26T12:36:20.609Z,78176
2017-05-26T12:37:21.170Z,78624
2017-05-26T12:38:20.953Z,77888
2017-05-26T12:39:20.979Z,77408
2017-05-26T12:40:20.716Z,76192
2017-05-26T12:41:20.748Z,77056
2017-05-26T12:42:20.790Z,80416
2017-05-26T12:43:21.139Z,80992
2017-05-26T12:44:20.543Z,80128
2017-05-26T12:45:21.204Z,81536
2017-05-26T12:46:21.233Z,82400
2017-05-26T12:47:21.267Z,82240
2017-05-26T12:48:21.058Z,81984
2017-05-26T12:49:21.352Z,82112
2017-05-26T12:50:21.380Z,81952
2017-05-26T12:51:21.421Z,81024
2017-05-26T12:52:20.833Z,80928
2017-05-26T12:53:21.737Z,79328
2017-05-26T12:54:21.515Z,75232
2017-05-26T12:55:21.244Z,75808
2017-05-26T12:56:21.284Z,77344
2017-05-26T12:57:21.626Z,77376
2017-05-26T12:58:21.251Z,75616
2017-05-26T12:59:21.704Z,75456
2017-05-26T13:00:21.119Z,77472
2017-05-26T13:01:21.464Z,76928
2017-05-26T13:02:21.807Z,74912
2017-05-26T13:03:21.733Z,73504
2017-05-26T13:04:21.566Z,74560
2017-05-26T13:05:21.914Z,75584
2017-05-26T13:06:21.948Z,74784
2017-05-26T13:07:21.683Z,72640
2017-05-26T13:08:21.653Z,72352
2017-05-26T13:09:21.434Z,69664
2017-05-26T13:10:21.474Z,71456
2017-05-26T13:11:22.132Z,73184
2017-05-26T13:12:21.846Z,74304
2017-05-26T13:13:22.091Z,76032
2017-05-26T13:14:21.925Z,77376
2017-05-26T13:15:22.269Z,76832
2017-05-26T13:16:22.309Z,78304
2017-05-26T13:17:22.345Z,77280
2017-05-26T13:18:22.014Z,78048
2017-05-26T13:19:22.422Z,78496
2017-05-26T13:20:22.135Z,77536
2017-05-26T13:21:22.176Z,77408
2017-05-26T13:22:22.542Z,79584
2017-05-26T13:23:22.826Z,82624
2017-05-26T13:24:22.280Z,83264
2017-05-26T13:25:22.324Z,82688
2017-05-26T13:26:22.355Z,77248
2017-05-26T13:27:22.391Z,75200
2017-05-26T13:28:22.980Z,76608
2017-05-26T13:29:22.779Z,76480
2017-05-26T13:30:22.229Z,74496
2017-05-26T13:31:22.541Z,71136
2017-05-26T13:32:22.560Z,71520
2017-05-26T13:33:23.130Z,75296
2017-05-26T13:34:22.950Z,68928
2017-05-26T13:35:22.987Z,61120
2017-05-26T13:36:22.416Z,63200
2017-05-26T13:37:22.432Z,71616
2017-05-26T13:38:23.036Z,74240
2017-05-26T13:39:23.130Z,72000
2017-05-26T13:40:23.170Z,69536
2017-05-26T13:41:23.204Z,70080
2017-05-26T13:42:22.920Z,70688
2017-05-26T13:43:23.162Z,72000
2017-05-26T13:44:23.310Z,70816
2017-05-26T13:45:23.028Z,73216
2017-05-26T13:46:23.380Z,76448
2017-05-26T13:47:23.412Z,78720
2017-05-26T13:48:23.075Z,75744
2017-05-26T13:49:23.486Z,74976